KSPS/SPS METAR and TAF weather

Enter ICAO airport designator
Station Type Date Time Source
KSPS METAR 2022/08/12 14:52 UTC NOAA

KSPS 121452Z 13007KT 10SM CLR 29/21 A3009 RMK AO2 SLP174 T02940206 50006


Station Type Date Time Source
KSPS Decoded METAR 2022/08/12 14:52 UTC NOAA

WICHITA FALLS SHEPPARD AFB, TX, United States (KSPS) 33-59N 98-30W 308M
Aug 12, 2022 - 10:52 AM EDT / 2022.08.12 1452 UTC
Wind: from the SE (130 degrees) at 8 MPH (7 KT):0
Visibility: 10 mile(s):0
Sky conditions: clear
Temperature: 84.9 F (29.4 C)
Dew Point: 69.1 F (20.6 C)
Relative Humidity: 59%
Pressure (altimeter): 30.09 in. Hg (1018 hPa)
Pressure tendency: 0.02 inches (0.6 hPa) higher than three hours ago
ob: KSPS 121452Z 13007KT 10SM CLR 29/21 A3009 RMK AO2 SLP174 T02940206 50006
cycle: 15

Station Type Date Time Source
KSPS TAF 2022/08/12 12:22 UTC NOAA

TAF KSPS 121120Z 1212/1312 08007KT P6SM SKC
FM121500 14010KT P6SM SCT080

Example: see airport list